createdAt,value
2019-05-01T00:04:23.631Z,9.90
2019-05-01T00:09:30.041Z,8.18
2019-05-01T00:14:34.963Z,10.63
2019-05-01T00:19:39.732Z,10.98
2019-05-01T00:24:44.740Z,9.03
2019-05-01T00:29:50.509Z,9.43
2019-05-01T00:34:55.215Z,11.22
2019-05-01T00:40:00.009Z,10.13
2019-05-01T00:45:05.137Z,13.78
2019-05-01T00:50:10.152Z,8.73
2019-05-01T00:55:32.909Z,12.77
2019-05-01T01:00:48.969Z,15.05
2019-05-01T01:05:53.935Z,14.53
2019-05-01T01:10:59.197Z,17.52
2019-05-01T01:16:04.554Z,12.25
2019-05-01T01:21:09.353Z,14.80
2019-05-01T01:26:15.109Z,11.33
2019-05-01T01:31:20.231Z,12.60
2019-05-01T01:36:25.029Z,13.50
2019-05-01T01:41:30.189Z,17.50
2019-05-01T01:46:36.081Z,15.25
2019-05-01T01:51:41.623Z,15.30
2019-05-01T01:56:46.407Z,13.03
2019-05-01T02:01:59.058Z,16.77
2019-05-01T02:07:04.585Z,17.03
2019-05-01T02:12:11.006Z,16.48
2019-05-01T02:17:15.917Z,18.30
2019-05-01T02:22:20.706Z,19.70
2019-05-01T02:27:32.498Z,17.48
2019-05-01T02:32:37.695Z,22.80
2019-05-01T02:37:45.424Z,23.90
2019-05-01T02:42:51.388Z,19.55
2019-05-01T02:47:56.577Z,21.10
2019-05-01T02:53:01.510Z,25.30
2019-05-01T02:58:08.931Z,26.55
2019-05-01T03:03:13.790Z,28.65
2019-05-01T03:08:20.012Z,29.70
2019-05-01T03:13:25.514Z,30.45
2019-05-01T03:18:35.459Z,26.52
2019-05-01T03:23:47.224Z,26.93
2019-05-01T03:28:52.069Z,28.27
2019-05-01T03:33:57.127Z,28.95
2019-05-01T03:39:02.057Z,33.02
2019-05-01T03:44:09.540Z,32.90
2019-05-01T03:49:14.639Z,34.60
2019-05-01T03:54:19.726Z,36.05
2019-05-01T03:59:24.900Z,29.07
2019-05-01T04:04:30.501Z,33.60
2019-05-01T04:09:35.786Z,37.00
2019-05-01T04:14:41.144Z,33.30
2019-05-01T04:19:46.357Z,33.45
2019-05-01T04:24:51.545Z,34.15
2019-05-01T04:30:14.412Z,41.10
2019-05-01T04:35:26.847Z,35.70
2019-05-01T04:40:31.685Z,37.80
2019-05-01T04:45:36.554Z,41.45
2019-05-01T04:50:41.892Z,45.08
2019-05-01T04:55:47.405Z,42.55
2019-05-01T05:00:52.265Z,46.35
2019-05-01T05:05:57.301Z,48.55
2019-05-01T05:11:05.433Z,54.03
2019-05-01T05:16:39.445Z,47.13
2019-05-01T05:21:44.267Z,54.80
2019-05-01T05:26:50.123Z,52.80
2019-05-01T05:31:57.007Z,53.48
2019-05-01T05:37:05.013Z,53.25
2019-05-01T05:42:10.140Z,54.00
2019-05-01T05:47:15.059Z,51.80
2019-05-01T05:52:40.991Z,54.48
2019-05-01T05:58:24.550Z,52.30
2019-05-01T06:04:05.030Z,56.73
2019-05-01T06:09:14.024Z,57.83
2019-05-01T06:14:41.842Z,57.73
2019-05-01T06:19:58.136Z,56.48
2019-05-01T06:25:14.193Z,55.12
2019-05-01T06:30:16.998Z,58.33
2019-05-01T06:35:29.109Z,56.43
2019-05-01T06:40:40.026Z,55.70
2019-05-01T06:45:51.609Z,53.33
2019-05-01T06:51:12.998Z,56.33
2019-05-01T06:56:18.006Z,56.93
2019-05-01T07:01:28.386Z,53.17
2019-05-01T07:06:33.905Z,57.50
2019-05-01T07:11:42.453Z,58.20
2019-05-01T07:16:55.132Z,58.48
2019-05-01T07:22:01.781Z,58.00
2019-05-01T07:27:06.903Z,60.73
2019-05-01T07:32:14.879Z,63.40
2019-05-01T07:37:20.788Z,59.50
2019-05-01T07:42:38.598Z,58.68
2019-05-01T07:47:44.011Z,60.17
2019-05-01T07:52:52.231Z,52.85
2019-05-01T07:57:56.018Z,58.20
2019-05-01T08:03:02.694Z,63.90
2019-05-01T08:08:10.995Z,64.20
2019-05-01T08:13:15.888Z,55.90
2019-05-01T08:18:29.323Z,52.80
2019-05-01T08:23:34.186Z,57.85
2019-05-01T08:28:57.988Z,58.90
2019-05-01T08:34:07.937Z,55.30
2019-05-01T08:39:13.986Z,57.67
2019-05-01T08:44:29.558Z,55.92
2019-05-01T08:49:42.277Z,56.95
2019-05-01T08:54:45.811Z,54.05
2019-05-01T08:59:50.621Z,51.48
2019-05-01T09:05:02.005Z,54.77
2019-05-01T09:10:02.249Z,49.88
2019-05-01T09:15:12.625Z,49.48
2019-05-01T09:20:16.558Z,48.43
2019-05-01T09:25:25.011Z,44.27
2019-05-01T09:30:34.605Z,41.00
2019-05-01T09:35:40.328Z,42.40
2019-05-01T09:40:46.014Z,39.65
2019-05-01T09:45:50.804Z,34.75
2019-05-01T09:51:07.117Z,37.03
2019-05-01T09:56:15.242Z,35.73
2019-05-01T10:01:24.135Z,39.35
2019-05-01T10:06:26.592Z,38.28
2019-05-01T10:11:35.997Z,39.27
2019-05-01T10:16:39.397Z,35.38
2019-05-01T10:21:44.187Z,32.53
2019-05-01T10:26:55.047Z,33.98
2019-05-01T10:32:09.486Z,34.33
2019-05-01T10:37:14.293Z,37.48
2019-05-01T10:42:25.209Z,36.40
2019-05-01T10:47:29.952Z,31.07
2019-05-01T10:52:34.673Z,33.20
2019-05-01T10:57:40.198Z,33.63
2019-05-01T11:02:45.899Z,34.98
2019-05-01T11:07:50.879Z,28.12
2019-05-01T11:12:55.658Z,29.90
2019-05-01T11:18:01.492Z,27.25
2019-05-01T11:23:06.290Z,24.43
2019-05-01T11:28:20.169Z,27.40
2019-05-01T11:33:35.697Z,26.62
2019-05-01T11:38:59.681Z,24.40
2019-05-01T11:44:10.410Z,22.70
2019-05-01T11:49:15.468Z,20.72
2019-05-01T11:54:20.309Z,20.62
2019-05-01T11:59:25.262Z,21.35
2019-05-01T12:04:31.062Z,19.40
2019-05-01T12:09:35.995Z,20.02
2019-05-01T12:14:41.158Z,18.75
2019-05-01T12:19:45.877Z,17.50
2019-05-01T12:24:50.652Z,19.27
2019-05-01T12:29:55.437Z,30.17
2019-05-01T12:35:00.435Z,20.65
2019-05-01T12:40:06.737Z,24.95
2019-05-01T12:45:12.470Z,18.17
2019-05-01T12:50:17.837Z,19.00
2019-05-01T12:55:41.686Z,15.37
2019-05-01T13:00:49.820Z,16.93
2019-05-01T13:06:06.433Z,18.48
2019-05-01T13:11:17.271Z,14.65
2019-05-01T13:16:21.964Z,17.75
2019-05-01T13:21:26.669Z,16.25
2019-05-01T13:26:50.862Z,13.88
2019-05-01T13:32:03.270Z,15.18
2019-05-01T13:37:09.138Z,12.90
2019-05-01T13:42:15.135Z,15.53
2019-05-01T13:47:19.879Z,14.03
2019-05-01T13:52:24.737Z,13.03
2019-05-01T13:57:29.576Z,12.10
2019-05-01T14:02:34.606Z,19.12
2019-05-01T14:07:39.308Z,10.05
2019-05-01T14:12:44.051Z,12.18
2019-05-01T14:17:48.798Z,9.33
2019-05-01T14:23:04.285Z,7.20
2019-05-01T14:28:14.237Z,9.63
2019-05-01T14:33:18.957Z,8.65
2019-05-01T14:38:23.696Z,10.85
2019-05-01T14:43:28.597Z,8.10
2019-05-01T14:48:33.530Z,10.80
2019-05-01T14:53:38.539Z,8.13
2019-05-01T14:58:43.241Z,8.13
2019-05-01T15:03:47.978Z,7.35
2019-05-01T15:08:54.062Z,5.72
2019-05-01T15:14:37.276Z,9.80
2019-05-01T15:19:47.113Z,9.35
2019-05-01T15:24:52.070Z,8.13
2019-05-01T15:29:57.222Z,6.03
2019-05-01T15:35:01.987Z,6.28
2019-05-01T15:40:20.178Z,4.90
2019-05-01T15:45:25.094Z,6.42
2019-05-01T15:50:44.723Z,7.72
2019-05-01T15:55:48.434Z,7.65
2019-05-01T16:00:53.410Z,5.78
2019-05-01T16:05:58.217Z,5.42
2019-05-01T16:11:28.181Z,8.00
2019-05-01T16:16:33.017Z,6.83
2019-05-01T16:21:37.768Z,5.00
2019-05-01T16:26:42.534Z,5.90
2019-05-01T16:31:47.312Z,4.58
2019-05-01T16:36:52.188Z,4.40
2019-05-01T16:41:57.115Z,5.83
2019-05-01T16:47:02.048Z,5.45
2019-05-01T16:52:07.358Z,7.28
2019-05-01T16:57:13.882Z,8.40
2019-05-01T17:02:50.402Z,7.25
2019-05-01T17:08:02.501Z,7.35
2019-05-01T17:13:08.618Z,6.92
2019-05-01T17:18:13.908Z,6.37
2019-05-01T17:23:28.667Z,4.67
2019-05-01T17:28:33.561Z,6.22
2019-05-01T17:33:38.764Z,5.92
2019-05-01T17:38:49.715Z,8.13
2019-05-01T17:43:50.614Z,4.17
2019-05-01T17:48:55.495Z,7.90
2019-05-01T17:54:00.342Z,3.75
2019-05-01T17:59:05.229Z,6.78
2019-05-01T18:04:32.229Z,5.60
2019-05-01T18:09:39.155Z,3.33
2019-05-01T18:14:44.302Z,5.75
2019-05-01T18:19:49.350Z,7.65
2019-05-01T18:25:06.365Z,6.40
2019-05-01T18:30:15.902Z,5.60
2019-05-01T18:35:20.501Z,5.17
2019-05-01T18:40:36.090Z,4.37
2019-05-01T18:45:52.273Z,5.03
2019-05-01T18:50:57.214Z,4.97
2019-05-01T18:56:05.588Z,4.58
2019-05-01T19:01:11.383Z,5.90
2019-05-01T19:06:16.460Z,6.80
2019-05-01T19:11:21.375Z,6.92
2019-05-01T19:16:26.338Z,6.20
2019-05-01T19:21:33.433Z,6.83
2019-05-01T19:26:42.522Z,6.65
2019-05-01T19:31:45.054Z,6.55
2019-05-01T19:36:51.467Z,7.58
2019-05-01T19:41:56.358Z,11.05
2019-05-01T19:47:01.147Z,7.78
2019-05-01T19:52:06.148Z,7.05
2019-05-01T19:57:11.082Z,7.05
2019-05-01T20:02:17.345Z,9.05
2019-05-01T20:07:22.982Z,8.58
2019-05-01T20:12:29.814Z,7.87
2019-05-01T20:17:34.394Z,6.47
2019-05-01T20:22:39.236Z,7.22
2019-05-01T20:27:47.828Z,11.30
2019-05-01T20:32:51.725Z,6.90
2019-05-01T20:37:57.318Z,8.18
2019-05-01T20:43:06.010Z,7.97
2019-05-01T20:48:08.909Z,8.18
2019-05-01T20:53:13.955Z,7.67
2019-05-01T20:58:20.215Z,9.40
2019-05-01T21:03:25.141Z,9.90
2019-05-01T21:08:40.837Z,10.00
2019-05-01T21:13:45.751Z,9.47
2019-05-01T21:18:50.578Z,11.93
2019-05-01T21:23:56.778Z,9.60
2019-05-01T21:29:03.938Z,10.00
2019-05-01T21:34:08.465Z,8.20
2019-05-01T21:39:14.976Z,8.95
2019-05-01T21:44:20.002Z,8.77
2019-05-01T21:49:24.777Z,8.10
2019-05-01T21:54:29.649Z,8.13
2019-05-01T21:59:35.367Z,10.13
2019-05-01T22:04:40.239Z,9.98
2019-05-01T22:09:45.593Z,8.98
2019-05-01T22:14:57.382Z,9.68
2019-05-01T22:20:02.301Z,11.40
2019-05-01T22:25:15.397Z,9.53
2019-05-01T22:30:29.441Z,12.30
2019-05-01T22:35:38.384Z,9.18
2019-05-01T22:41:06.425Z,12.23
2019-05-01T22:46:09.495Z,12.58
2019-05-01T22:51:21.509Z,13.32
2019-05-01T22:56:26.496Z,15.48
2019-05-01T23:01:31.275Z,12.20
2019-05-01T23:06:37.242Z,14.80
2019-05-01T23:11:46.589Z,11.48
2019-05-01T23:17:03.304Z,12.18
2019-05-01T23:22:06.576Z,13.62
2019-05-01T23:27:11.292Z,15.48
2019-05-01T23:32:15.998Z,16.50
2019-05-01T23:37:20.778Z,15.40
2019-05-01T23:42:25.836Z,15.83
2019-05-01T23:47:30.586Z,14.47
2019-05-01T23:52:38.606Z,16.27
2019-05-01T23:57:41.814Z,13.30
